createdAt,value
2022-11-19T00:01:27.006Z,18.10
2022-11-19T00:03:54.427Z,24.48
2022-11-19T00:06:23.578Z,18.65
2022-11-19T00:08:51.120Z,23.42
2022-11-19T00:11:40.984Z,19.00
2022-11-19T00:14:09.421Z,19.60
2022-11-19T00:16:36.364Z,22.90
2022-11-19T00:19:03.533Z,23.17
2022-11-19T00:21:30.566Z,23.90
2022-11-19T00:23:57.683Z,25.20
2022-11-19T00:26:25.164Z,27.73
2022-11-19T00:28:52.143Z,27.17
2022-11-19T00:31:19.373Z,22.95
2022-11-19T00:33:47.168Z,32.22
2022-11-19T00:36:15.515Z,26.98
2022-11-19T00:38:43.117Z,28.02
2022-11-19T00:41:10.800Z,27.77
2022-11-19T00:43:50.256Z,22.70
2022-11-19T00:46:20.101Z,28.17
2022-11-19T00:48:48.700Z,26.60
2022-11-19T00:51:17.201Z,28.83
2022-11-19T00:53:44.372Z,24.90
2022-11-19T00:56:14.143Z,24.20
2022-11-19T00:58:41.723Z,23.63
2022-11-19T01:01:10.002Z,24.88
2022-11-19T01:03:38.887Z,27.15
2022-11-19T01:06:07.068Z,23.60
2022-11-19T01:08:34.792Z,19.08
2022-11-19T01:11:13.724Z,20.50
2022-11-19T01:13:40.868Z,18.95
2022-11-19T01:16:31.212Z,21.15
2022-11-19T01:18:58.765Z,22.60
2022-11-19T01:21:29.194Z,16.00
2022-11-19T01:23:57.105Z,18.63
2022-11-19T01:26:25.194Z,15.18
2022-11-19T01:28:52.255Z,14.02
2022-11-19T01:31:27.936Z,11.55
2022-11-19T01:33:55.145Z,13.65
2022-11-19T01:36:28.209Z,10.80
2022-11-19T01:38:57.065Z,10.20
2022-11-19T01:41:25.477Z,13.98
2022-11-19T01:43:56.535Z,9.07
2022-11-19T01:46:29.052Z,10.63
2022-11-19T01:49:02.563Z,8.30
2022-11-19T01:51:40.339Z,8.48
2022-11-19T01:54:16.170Z,7.03
2022-11-19T01:56:43.945Z,8.10
2022-11-19T01:59:15.730Z,9.70
2022-11-19T02:01:44.246Z,9.70
2022-11-19T02:04:13.287Z,9.48
2022-11-19T02:06:41.490Z,7.65
2022-11-19T02:09:08.667Z,8.35
2022-11-19T02:12:02.647Z,8.07
2022-11-19T02:14:38.945Z,7.90
2022-11-19T02:17:27.896Z,14.52
2022-11-19T02:20:37.130Z,10.43
2022-11-19T02:23:16.295Z,9.45
2022-11-19T02:26:20.986Z,9.48
2022-11-19T02:28:52.298Z,12.05
2022-11-19T02:31:22.189Z,10.27
2022-11-19T02:33:56.301Z,11.07
2022-11-19T02:36:40.669Z,9.25
2022-11-19T02:39:42.246Z,9.50
2022-11-19T02:42:09.278Z,9.98
2022-11-19T02:45:02.756Z,9.27
2022-11-19T02:47:39.228Z,9.98
2022-11-19T02:50:26.795Z,11.35
2022-11-19T02:52:54.400Z,8.55
2022-11-19T02:55:22.421Z,10.85
2022-11-19T02:58:06.547Z,9.35
2022-11-19T03:01:03.981Z,14.48
2022-11-19T03:03:51.318Z,8.50
2022-11-19T03:06:23.723Z,10.40
2022-11-19T03:08:50.835Z,11.25
2022-11-19T03:11:21.663Z,9.85
2022-11-19T03:14:15.699Z,15.82
2022-11-19T03:16:52.493Z,11.68
2022-11-19T03:19:25.813Z,11.60
2022-11-19T03:22:00.957Z,13.38
2022-11-19T03:24:40.184Z,10.10
2022-11-19T03:27:18.276Z,14.88
2022-11-19T03:29:52.027Z,14.50
2022-11-19T03:32:24.077Z,12.23
2022-11-19T03:34:56.624Z,10.85
2022-11-19T03:37:25.697Z,10.88
2022-11-19T03:39:57.937Z,11.15
2022-11-19T03:42:27.240Z,9.02
2022-11-19T03:45:02.960Z,8.95
2022-11-19T03:47:36.283Z,10.20
2022-11-19T03:50:31.489Z,17.25
2022-11-19T03:53:04.168Z,15.88
2022-11-19T03:55:51.855Z,14.57
2022-11-19T03:58:19.370Z,14.18
2022-11-19T04:00:46.840Z,16.98
2022-11-19T04:03:14.709Z,11.02
2022-11-19T04:05:41.870Z,11.38
2022-11-19T04:08:12.154Z,13.40
2022-11-19T04:10:39.250Z,11.27
2022-11-19T04:13:06.731Z,13.20
2022-11-19T04:15:33.918Z,14.25
2022-11-19T04:18:02.361Z,13.95
2022-11-19T04:20:29.891Z,14.20
2022-11-19T04:22:56.946Z,10.98
2022-11-19T04:25:26.297Z,12.15
2022-11-19T04:27:53.519Z,14.95
2022-11-19T04:30:21.056Z,13.43
2022-11-19T04:32:51.342Z,14.50
2022-11-19T04:35:24.530Z,16.80
2022-11-19T04:37:51.422Z,17.65
2022-11-19T04:40:18.884Z,11.32
2022-11-19T04:42:45.847Z,13.15
2022-11-19T04:45:12.997Z,13.98
2022-11-19T04:47:40.207Z,15.77
2022-11-19T04:50:10.132Z,12.00
2022-11-19T04:52:40.767Z,17.10
2022-11-19T04:55:09.627Z,14.68
2022-11-19T04:57:36.858Z,13.02
2022-11-19T05:00:05.142Z,13.57
2022-11-19T05:02:32.395Z,15.30
2022-11-19T05:04:59.333Z,16.90
2022-11-19T05:07:26.291Z,16.75
2022-11-19T05:09:53.256Z,12.50
2022-11-19T05:12:20.386Z,17.92
2022-11-19T05:14:47.693Z,11.40
2022-11-19T05:17:14.772Z,12.02
2022-11-19T05:19:41.850Z,15.55
2022-11-19T05:22:08.913Z,16.00
2022-11-19T05:24:36.168Z,16.77
2022-11-19T05:27:03.453Z,16.65
2022-11-19T05:29:30.620Z,20.63
2022-11-19T05:31:57.792Z,14.73
2022-11-19T05:34:24.749Z,15.18
2022-11-19T05:36:51.850Z,11.85
2022-11-19T05:39:22.232Z,16.30
2022-11-19T05:41:49.518Z,19.02
2022-11-19T05:44:16.726Z,17.95
2022-11-19T05:46:44.060Z,15.55
2022-11-19T05:49:11.964Z,14.68
2022-11-19T05:51:40.374Z,16.73
2022-11-19T05:54:07.377Z,17.15
2022-11-19T05:56:34.607Z,15.77
2022-11-19T05:59:01.445Z,18.20
2022-11-19T06:01:30.190Z,17.17
2022-11-19T06:03:57.544Z,18.35
2022-11-19T06:06:25.521Z,12.70
2022-11-19T06:08:52.430Z,18.05
2022-11-19T06:11:38.053Z,20.35
2022-11-19T06:14:05.278Z,16.90
2022-11-19T06:16:32.284Z,17.13
2022-11-19T06:18:59.447Z,18.20
2022-11-19T06:21:26.370Z,15.65
2022-11-19T06:23:53.490Z,18.52
2022-11-19T06:26:28.727Z,18.30
2022-11-19T06:28:56.439Z,21.58
2022-11-19T06:31:24.234Z,19.75
2022-11-19T06:33:53.480Z,22.15
2022-11-19T06:36:20.960Z,18.88
2022-11-19T06:38:48.248Z,15.48
2022-11-19T06:41:15.781Z,17.80
2022-11-19T06:43:43.260Z,17.88
2022-11-19T06:46:15.963Z,13.43
2022-11-19T06:48:42.966Z,13.80
2022-11-19T06:51:11.107Z,18.23
2022-11-19T06:53:38.006Z,19.67
2022-11-19T06:56:07.259Z,14.65
2022-11-19T06:58:34.825Z,16.63
2022-11-19T07:01:01.923Z,18.88
2022-11-19T07:03:28.815Z,12.40
2022-11-19T07:05:59.226Z,21.23
2022-11-19T07:08:26.088Z,20.58
2022-11-19T07:10:53.197Z,17.02
2022-11-19T07:13:20.243Z,19.33
2022-11-19T07:15:47.083Z,15.63
2022-11-19T07:18:23.433Z,19.50
2022-11-19T07:20:50.481Z,16.20
2022-11-19T07:23:20.716Z,20.17
2022-11-19T07:25:47.613Z,15.45
2022-11-19T07:28:14.808Z,23.98
2022-11-19T07:30:42.010Z,25.45
2022-11-19T07:33:09.001Z,27.38
2022-11-19T07:35:35.809Z,24.90
2022-11-19T07:38:02.696Z,21.02
2022-11-19T07:40:29.772Z,15.20
2022-11-19T07:42:59.421Z,16.92
2022-11-19T07:45:26.397Z,10.90
2022-11-19T07:47:53.588Z,17.75
2022-11-19T07:50:22.055Z,15.75
2022-11-19T07:52:48.905Z,17.80
2022-11-19T07:55:16.165Z,11.23
2022-11-19T07:57:43.182Z,9.85
2022-11-19T08:00:10.627Z,6.32
2022-11-19T08:02:37.519Z,8.70
2022-11-19T08:05:04.525Z,13.05
2022-11-19T08:07:31.465Z,13.07
2022-11-19T08:09:58.561Z,13.60
2022-11-19T08:12:25.415Z,14.15
2022-11-19T08:14:52.204Z,15.25
2022-11-19T08:17:38.381Z,16.58
2022-11-19T08:20:05.999Z,18.13
2022-11-19T08:22:33.233Z,17.92
2022-11-19T08:25:00.103Z,19.48
2022-11-19T08:27:27.124Z,10.10
2022-11-19T08:29:54.074Z,12.02
2022-11-19T08:32:21.023Z,19.83
2022-11-19T08:35:00.154Z,16.15
2022-11-19T08:37:27.563Z,10.95
2022-11-19T08:39:54.598Z,17.00
2022-11-19T08:42:40.355Z,14.45
2022-11-19T08:45:10.433Z,13.70
2022-11-19T08:47:37.314Z,15.27
2022-11-19T08:50:04.474Z,13.55
2022-11-19T08:52:32.809Z,11.15
2022-11-19T08:54:59.754Z,14.07
2022-11-19T08:57:26.870Z,11.88
2022-11-19T08:59:54.153Z,14.52
2022-11-19T09:02:21.115Z,20.52
2022-11-19T09:04:48.065Z,15.52
2022-11-19T09:07:15.014Z,16.92
2022-11-19T09:09:41.884Z,17.73
2022-11-19T09:12:09.716Z,19.90
2022-11-19T09:14:36.915Z,14.02
2022-11-19T09:17:04.149Z,11.48
2022-11-19T09:19:31.109Z,19.13
2022-11-19T09:21:58.702Z,10.68
2022-11-19T09:24:27.518Z,19.27
2022-11-19T09:26:58.308Z,19.95
2022-11-19T09:29:43.162Z,21.13
2022-11-19T09:32:21.145Z,12.32
2022-11-19T09:34:52.368Z,23.15
2022-11-19T09:37:19.769Z,14.40
2022-11-19T09:39:47.109Z,17.35
2022-11-19T09:42:39.753Z,18.98
2022-11-19T09:45:24.597Z,20.20
2022-11-19T09:48:10.699Z,18.33
2022-11-19T09:51:00.437Z,21.33
2022-11-19T09:53:33.118Z,17.83
2022-11-19T09:56:00.814Z,26.77
2022-11-19T09:58:33.185Z,19.05
2022-11-19T10:01:00.796Z,16.45
2022-11-19T10:03:33.211Z,13.75
2022-11-19T10:06:15.608Z,22.08
2022-11-19T10:09:04.505Z,13.85
2022-11-19T10:11:51.205Z,15.95
2022-11-19T10:14:33.219Z,19.45
2022-11-19T10:17:18.876Z,18.42
2022-11-19T10:20:04.062Z,19.08
2022-11-19T10:22:39.889Z,25.58
2022-11-19T10:25:13.223Z,21.17
2022-11-19T10:27:55.244Z,17.00
2022-11-19T10:30:25.868Z,15.35
2022-11-19T10:33:03.507Z,19.60
2022-11-19T10:35:32.613Z,16.42
2022-11-19T10:38:02.872Z,18.95
2022-11-19T10:40:43.503Z,11.38
2022-11-19T10:43:20.658Z,11.88
2022-11-19T10:45:50.421Z,14.02
2022-11-19T10:48:23.887Z,13.88
2022-11-19T10:50:53.020Z,7.85
2022-11-19T10:53:39.727Z,9.88
2022-11-19T10:56:22.711Z,11.90
2022-11-19T10:58:58.130Z,10.05
2022-11-19T11:01:41.308Z,10.27
2022-11-19T11:04:15.596Z,10.75
2022-11-19T11:07:03.831Z,10.15
2022-11-19T11:09:33.916Z,14.57
2022-11-19T11:12:41.685Z,11.07
2022-11-19T11:15:21.627Z,12.10
2022-11-19T11:18:11.200Z,13.18
2022-11-19T11:20:40.456Z,12.13
2022-11-19T11:23:24.501Z,13.10
2022-11-19T11:26:12.423Z,13.82
2022-11-19T11:29:19.734Z,10.27
2022-11-19T11:31:51.078Z,12.40
2022-11-19T11:34:43.673Z,14.48
2022-11-19T11:37:12.487Z,14.27
2022-11-19T11:39:44.164Z,12.75
2022-11-19T11:42:18.157Z,20.17
2022-11-19T11:45:02.352Z,19.58
2022-11-19T11:47:41.645Z,12.45
2022-11-19T11:50:22.014Z,12.10
2022-11-19T11:52:53.992Z,11.43
2022-11-19T11:55:24.724Z,11.80
2022-11-19T11:58:25.288Z,14.77
2022-11-19T12:00:55.638Z,13.60
2022-11-19T12:03:24.514Z,13.85
2022-11-19T12:06:12.953Z,14.30
2022-11-19T12:08:50.686Z,12.25
2022-11-19T12:11:58.086Z,14.65
2022-11-19T12:14:55.411Z,15.48
2022-11-19T12:17:41.183Z,11.93
2022-11-19T12:20:34.043Z,16.00
2022-11-19T12:23:06.362Z,15.00
2022-11-19T12:25:52.869Z,13.88
2022-11-19T12:28:51.691Z,16.58
2022-11-19T12:31:47.937Z,18.25
2022-11-19T12:34:42.804Z,14.80
2022-11-19T12:37:23.046Z,11.93
2022-11-19T12:40:04.148Z,12.50
2022-11-19T12:43:00.586Z,18.73
2022-11-19T12:45:52.332Z,13.18
2022-11-19T12:48:47.719Z,11.43
2022-11-19T12:51:17.803Z,16.55
2022-11-19T12:54:07.019Z,11.90
2022-11-19T12:56:43.798Z,8.50
2022-11-19T12:59:26.532Z,7.97
2022-11-19T13:01:55.311Z,10.70
2022-11-19T13:05:02.734Z,8.65
2022-11-19T13:07:39.833Z,8.38
2022-11-19T13:10:21.500Z,9.68
2022-11-19T13:12:52.332Z,8.05
2022-11-19T13:15:22.696Z,8.80
2022-11-19T13:17:54.249Z,9.18
2022-11-19T13:20:32.591Z,6.85
2022-11-19T13:23:04.504Z,6.68
2022-11-19T13:25:40.939Z,6.55
2022-11-19T13:28:27.649Z,6.00
2022-11-19T13:31:00.492Z,4.60
2022-11-19T13:33:37.637Z,4.65
2022-11-19T13:36:15.953Z,5.65
2022-11-19T13:39:26.811Z,4.70
2022-11-19T13:42:14.919Z,4.75
2022-11-19T13:44:43.138Z,6.68
2022-11-19T13:47:24.332Z,5.78
2022-11-19T13:50:02.802Z,4.63
2022-11-19T13:52:37.013Z,4.18
2022-11-19T13:55:21.188Z,4.13
2022-11-19T13:57:50.691Z,4.88
2022-11-19T14:00:26.554Z,4.35
2022-11-19T14:03:14.690Z,4.32
2022-11-19T14:05:47.987Z,4.72
2022-11-19T14:08:33.667Z,5.30
2022-11-19T14:11:29.883Z,3.85
2022-11-19T14:14:53.209Z,5.35
2022-11-19T14:18:06.496Z,6.35
2022-11-19T14:20:59.332Z,7.18
2022-11-19T14:24:14.405Z,7.22
2022-11-19T14:26:41.725Z,7.50
2022-11-19T14:29:26.725Z,13.90
2022-11-19T14:32:06.337Z,15.00
2022-11-19T14:34:36.729Z,13.05
2022-11-19T14:37:20.345Z,12.63
2022-11-19T14:40:10.739Z,10.20
2022-11-19T14:43:17.575Z,10.18
2022-11-19T14:46:05.342Z,11.63
2022-11-19T14:48:41.623Z,11.13
2022-11-19T14:51:13.198Z,13.43
2022-11-19T14:53:59.398Z,14.55
2022-11-19T14:56:27.833Z,16.42
2022-11-19T14:59:11.493Z,18.25
2022-11-19T15:01:59.387Z,16.77
2022-11-19T15:04:34.970Z,18.05
2022-11-19T15:07:09.929Z,21.25
2022-11-19T15:10:04.833Z,18.08
2022-11-19T15:12:48.816Z,21.40
2022-11-19T15:15:24.937Z,22.13
2022-11-19T15:18:02.369Z,17.45
2022-11-19T15:20:32.909Z,18.58
2022-11-19T15:23:05.917Z,19.48
2022-11-19T15:25:51.634Z,31.98
2022-11-19T15:28:37.483Z,22.30
2022-11-19T15:31:13.861Z,22.25
2022-11-19T15:33:52.170Z,22.33
2022-11-19T15:36:33.050Z,22.98
2022-11-19T15:39:31.910Z,24.25
2022-11-19T15:42:06.211Z,23.65
2022-11-19T15:44:51.112Z,26.50
2022-11-19T15:47:29.179Z,25.55
2022-11-19T15:49:58.558Z,24.27
2022-11-19T15:52:32.323Z,23.08
2022-11-19T15:55:24.466Z,26.58
2022-11-19T15:57:56.157Z,24.55
2022-11-19T16:00:23.870Z,24.23
2022-11-19T16:02:52.834Z,25.30
2022-11-19T16:05:29.778Z,21.27
2022-11-19T16:08:00.098Z,23.15
2022-11-19T16:10:34.451Z,23.92
2022-11-19T16:13:22.797Z,24.90
2022-11-19T16:16:12.981Z,25.23
2022-11-19T16:18:50.924Z,25.13
2022-11-19T16:21:28.939Z,26.33
2022-11-19T16:24:14.786Z,24.73
2022-11-19T16:26:44.408Z,24.77
2022-11-19T16:29:22.126Z,24.58
2022-11-19T16:31:51.089Z,27.50
2022-11-19T16:34:38.316Z,24.48
2022-11-19T16:37:05.564Z,24.42
2022-11-19T16:39:34.329Z,28.08
2022-11-19T16:42:17.635Z,25.92
2022-11-19T16:44:54.697Z,26.17
2022-11-19T16:47:50.089Z,30.05
2022-11-19T16:50:36.050Z,28.63
2022-11-19T16:53:05.899Z,35.05
2022-11-19T16:55:34.564Z,34.67
2022-11-19T16:58:12.256Z,31.25
2022-11-19T17:00:39.528Z,34.85
2022-11-19T17:03:21.698Z,34.20
2022-11-19T17:05:52.217Z,32.78
2022-11-19T17:08:23.934Z,32.40
2022-11-19T17:11:30.824Z,36.83
2022-11-19T17:13:58.271Z,29.77
2022-11-19T17:16:25.908Z,29.52
2022-11-19T17:18:52.765Z,30.00
2022-11-19T17:21:30.300Z,31.63
2022-11-19T17:23:58.321Z,32.50
2022-11-19T17:26:28.933Z,32.80
2022-11-19T17:29:10.736Z,33.80
2022-11-19T17:31:37.985Z,36.08
2022-11-19T17:34:04.888Z,37.78
2022-11-19T17:36:32.083Z,34.47
2022-11-19T17:38:59.791Z,37.42
2022-11-19T17:41:47.620Z,38.60
2022-11-19T17:44:36.195Z,44.40
2022-11-19T17:47:22.690Z,41.20
2022-11-19T17:49:51.182Z,49.45
2022-11-19T17:52:26.136Z,51.38
2022-11-19T17:54:57.007Z,64.60
2022-11-19T17:57:24.415Z,57.60
2022-11-19T17:59:51.427Z,73.63
2022-11-19T18:02:20.901Z,62.38
2022-11-19T18:04:49.364Z,66.80
2022-11-19T18:07:16.427Z,66.75
2022-11-19T18:09:43.653Z,70.28
2022-11-19T18:12:16.922Z,68.90
2022-11-19T18:14:44.670Z,71.60
2022-11-19T18:17:12.981Z,67.18
2022-11-19T18:19:40.246Z,74.57
2022-11-19T18:22:17.394Z,65.40
2022-11-19T18:24:46.571Z,65.60
2022-11-19T18:27:13.936Z,66.05
2022-11-19T18:29:40.888Z,67.55
2022-11-19T18:32:10.500Z,63.30
2022-11-19T18:34:37.863Z,61.55
2022-11-19T18:37:05.019Z,61.85
2022-11-19T18:39:32.061Z,67.80
2022-11-19T18:41:59.210Z,68.63
2022-11-19T18:44:34.930Z,69.07
2022-11-19T18:47:10.724Z,71.88
2022-11-19T18:49:38.701Z,66.53
2022-11-19T18:52:08.236Z,71.63
2022-11-19T18:54:35.503Z,66.95
2022-11-19T18:57:02.571Z,64.60
2022-11-19T18:59:32.716Z,73.35
2022-11-19T19:01:59.722Z,76.00
2022-11-19T19:04:26.839Z,70.82
2022-11-19T19:06:54.005Z,73.90
2022-11-19T19:09:21.881Z,80.72
2022-11-19T19:12:13.088Z,84.85
2022-11-19T19:14:41.527Z,71.28
2022-11-19T19:17:09.310Z,73.85
2022-11-19T19:19:36.166Z,73.47
2022-11-19T19:22:03.614Z,82.22
2022-11-19T19:24:31.586Z,83.05
2022-11-19T19:26:59.919Z,79.25
2022-11-19T19:29:27.088Z,83.95
2022-11-19T19:31:54.755Z,83.38
2022-11-19T19:34:21.650Z,79.07
2022-11-19T19:36:52.958Z,71.07
2022-11-19T19:39:21.443Z,72.60
2022-11-19T19:41:49.409Z,78.60
2022-11-19T19:44:17.054Z,69.88
2022-11-19T19:46:43.826Z,76.57
2022-11-19T19:49:10.848Z,72.32
2022-11-19T19:51:38.497Z,77.10
2022-11-19T19:54:05.567Z,72.95
2022-11-19T19:56:33.687Z,74.50
2022-11-19T19:59:01.635Z,77.35
2022-11-19T20:01:31.532Z,87.82
2022-11-19T20:04:07.598Z,83.93
2022-11-19T20:06:37.789Z,88.50
2022-11-19T20:09:08.982Z,87.07
2022-11-19T20:11:37.196Z,82.50
2022-11-19T20:14:04.340Z,85.25
2022-11-19T20:16:32.553Z,85.68
2022-11-19T20:19:00.570Z,91.55
2022-11-19T20:21:31.687Z,82.75
2022-11-19T20:23:58.676Z,77.75
2022-11-19T20:26:28.744Z,74.95
2022-11-19T20:29:00.933Z,76.95
2022-11-19T20:31:29.136Z,72.70
2022-11-19T20:33:58.216Z,69.55
2022-11-19T20:36:28.778Z,63.67
2022-11-19T20:38:57.660Z,70.95
2022-11-19T20:41:44.976Z,65.20
2022-11-19T20:44:23.290Z,64.05
2022-11-19T20:47:02.380Z,65.72
2022-11-19T20:49:35.038Z,66.35
2022-11-19T20:52:03.848Z,67.00
2022-11-19T20:54:31.040Z,55.80
2022-11-19T20:56:59.490Z,59.28
2022-11-19T20:59:28.273Z,52.50
2022-11-19T21:01:57.059Z,50.85
2022-11-19T21:04:25.665Z,49.58
2022-11-19T21:06:54.018Z,47.33
2022-11-19T21:09:21.977Z,51.15
2022-11-19T21:11:49.399Z,51.70
2022-11-19T21:14:16.480Z,51.55
2022-11-19T21:16:43.763Z,50.58
2022-11-19T21:19:11.572Z,54.03
2022-11-19T21:21:39.003Z,58.00
2022-11-19T21:24:06.970Z,58.13
2022-11-19T21:26:33.813Z,57.70
2022-11-19T21:29:00.921Z,59.03
2022-11-19T21:31:41.500Z,54.22
2022-11-19T21:34:09.479Z,50.35
2022-11-19T21:36:37.260Z,54.00
2022-11-19T21:39:05.939Z,55.95
2022-11-19T21:41:34.925Z,58.00
2022-11-19T21:44:03.473Z,62.65
2022-11-19T21:46:30.716Z,52.95
2022-11-19T21:48:57.689Z,52.50
2022-11-19T21:51:25.425Z,57.85
2022-11-19T21:54:02.470Z,61.60
2022-11-19T21:56:33.835Z,55.53
2022-11-19T21:59:05.538Z,61.13
2022-11-19T22:01:32.550Z,58.83
2022-11-19T22:03:59.704Z,55.97
2022-11-19T22:06:26.947Z,62.85
2022-11-19T22:08:53.928Z,60.70
2022-11-19T22:11:30.330Z,61.75
2022-11-19T22:14:02.104Z,54.92
2022-11-19T22:16:30.466Z,54.72
2022-11-19T22:18:57.678Z,50.67
2022-11-19T22:21:25.557Z,52.85
2022-11-19T22:23:53.389Z,54.33
2022-11-19T22:26:20.747Z,54.60
2022-11-19T22:28:47.953Z,54.85
2022-11-19T22:31:15.873Z,58.10
2022-11-19T22:33:43.333Z,56.80
2022-11-19T22:36:11.976Z,55.72
2022-11-19T22:38:39.578Z,60.35
2022-11-19T22:41:14.753Z,59.50
2022-11-19T22:43:42.503Z,59.63
2022-11-19T22:46:11.806Z,66.78
2022-11-19T22:48:39.510Z,59.90
2022-11-19T22:51:15.693Z,64.35
2022-11-19T22:53:43.548Z,59.58
2022-11-19T22:56:13.746Z,63.35
2022-11-19T22:58:40.975Z,64.88
2022-11-19T23:01:17.740Z,64.85
2022-11-19T23:03:46.385Z,60.45
2022-11-19T23:06:14.140Z,57.90
2022-11-19T23:08:41.272Z,65.85
2022-11-19T23:11:09.523Z,65.57
2022-11-19T23:13:39.298Z,60.67
2022-11-19T23:16:16.527Z,59.45
2022-11-19T23:18:47.921Z,63.63
2022-11-19T23:21:19.808Z,66.90
2022-11-19T23:23:46.822Z,63.13
2022-11-19T23:26:15.538Z,62.25
2022-11-19T23:28:43.274Z,66.95
2022-11-19T23:31:11.731Z,60.63
2022-11-19T23:33:39.149Z,62.83
2022-11-19T23:36:21.448Z,64.45
2022-11-19T23:38:48.636Z,68.40
2022-11-19T23:41:17.236Z,67.88
2022-11-19T23:43:44.855Z,67.25
2022-11-19T23:46:13.660Z,64.88
2022-11-19T23:48:43.023Z,61.65
2022-11-19T23:51:13.237Z,63.97
2022-11-19T23:53:40.728Z,69.50
2022-11-19T23:56:08.128Z,59.40
2022-11-19T23:58:35.214Z,65.47
